createdAt,value
2019-04-03T00:00:00.941Z,10.00
2019-04-03T00:02:27.743Z,9.80
2019-04-03T00:04:54.039Z,9.70
2019-04-03T00:07:20.416Z,9.50
2019-04-03T00:09:46.889Z,9.50
2019-04-03T00:12:13.720Z,9.30
2019-04-03T00:14:43.134Z,9.30
2019-04-03T00:17:09.654Z,9.20
2019-04-03T00:19:36.379Z,9.10
2019-04-03T00:22:03.062Z,9.00
2019-04-03T00:24:29.544Z,8.90
2019-04-03T00:26:56.298Z,8.80
2019-04-03T00:29:22.914Z,8.80
2019-04-03T00:31:49.308Z,8.70
2019-04-03T00:34:15.935Z,8.60
2019-04-03T00:36:42.748Z,8.50
2019-04-03T00:39:09.384Z,8.40
2019-04-03T00:41:35.823Z,8.30
2019-04-03T00:44:04.471Z,8.30
2019-04-03T00:46:30.772Z,8.20
2019-04-03T00:48:57.177Z,8.10
2019-04-03T00:51:24.098Z,7.90
2019-04-03T00:53:50.680Z,7.90
2019-04-03T00:56:17.337Z,7.90
2019-04-03T00:58:44.219Z,7.80
2019-04-03T01:01:11.379Z,7.70
2019-04-03T01:03:38.145Z,7.70
2019-04-03T01:06:04.827Z,7.60
2019-04-03T01:08:31.405Z,7.50
2019-04-03T01:10:58.736Z,7.50
2019-04-03T01:13:25.916Z,7.40
2019-04-03T01:15:53.255Z,7.40
2019-04-03T01:18:19.581Z,7.40
2019-04-03T01:20:46.579Z,7.30
2019-04-03T01:23:14.033Z,7.40
2019-04-03T01:25:40.759Z,7.40
2019-04-03T01:28:08.332Z,7.40
2019-04-03T01:30:34.728Z,7.40
2019-04-03T01:33:01.117Z,7.50
2019-04-03T01:35:27.497Z,7.50
2019-04-03T01:37:53.887Z,7.50
2019-04-03T01:40:20.964Z,7.50
2019-04-03T01:42:47.836Z,7.50
2019-04-03T01:45:14.163Z,7.50
2019-04-03T01:47:40.708Z,7.60
2019-04-03T01:50:07.363Z,7.70
2019-04-03T01:52:33.709Z,7.80
2019-04-03T01:55:03.336Z,7.90
2019-04-03T01:57:29.480Z,7.90
2019-04-03T01:59:56.154Z,7.90
2019-04-03T02:02:22.531Z,7.90
2019-04-03T02:04:48.769Z,7.90
2019-04-03T02:07:15.262Z,7.90
2019-04-03T02:09:41.596Z,7.90
2019-04-03T02:12:07.972Z,7.90
2019-04-03T02:14:34.361Z,7.90
2019-04-03T02:17:00.655Z,7.90
2019-04-03T02:19:27.091Z,7.90
2019-04-03T02:21:53.854Z,7.90
2019-04-03T02:24:20.149Z,7.80
2019-04-03T02:26:46.490Z,7.90
2019-04-03T02:29:13.118Z,7.80
2019-04-03T02:31:39.672Z,7.90
2019-04-03T02:34:06.030Z,7.90
2019-04-03T02:36:32.507Z,7.90
2019-04-03T02:38:59.106Z,7.90
2019-04-03T02:41:25.515Z,7.80
2019-04-03T02:43:52.061Z,7.80
2019-04-03T02:46:18.426Z,7.80
2019-04-03T02:48:44.787Z,7.70
2019-04-03T02:51:11.232Z,7.70
2019-04-03T02:53:37.721Z,7.70
2019-04-03T02:56:04.385Z,7.70
2019-04-03T02:58:32.676Z,7.80
2019-04-03T03:00:59.103Z,7.80
2019-04-03T03:03:25.818Z,7.90
2019-04-03T03:05:52.153Z,7.90
2019-04-03T03:08:22.194Z,7.90
2019-04-03T03:10:48.953Z,8.00
2019-04-03T03:13:16.082Z,8.00
2019-04-03T03:15:43.827Z,8.00
2019-04-03T03:18:10.938Z,8.00
2019-04-03T03:20:40.353Z,8.00
2019-04-03T03:23:06.879Z,8.00
2019-04-03T03:25:34.329Z,8.10
2019-04-03T03:28:02.054Z,8.10
2019-04-03T03:30:39.950Z,8.10
2019-04-03T03:33:22.789Z,8.10
2019-04-03T03:35:31.562Z,8.10
2019-04-03T03:37:55.559Z,8.10
2019-04-03T03:40:22.427Z,8.10
2019-04-03T03:42:49.309Z,8.20
2019-04-03T03:45:20.723Z,8.20
2019-04-03T03:47:48.147Z,8.10
2019-04-03T03:50:22.389Z,8.20
2019-04-03T03:52:47.351Z,8.20
2019-04-03T03:55:14.157Z,8.20
2019-04-03T03:57:41.055Z,8.20
2019-04-03T04:00:09.194Z,8.10
2019-04-03T04:02:36.739Z,8.10
2019-04-03T04:05:09.315Z,8.10
2019-04-03T04:07:35.922Z,8.10
2019-04-03T04:10:02.624Z,8.10
2019-04-03T04:12:29.087Z,8.10
2019-04-03T04:14:57.091Z,8.00
2019-04-03T04:17:23.845Z,8.00
2019-04-03T04:19:50.345Z,8.00
2019-04-03T04:22:18.061Z,8.00
2019-04-03T04:24:44.935Z,8.00
2019-04-03T04:27:11.311Z,8.00
2019-04-03T04:29:41.335Z,7.90
2019-04-03T04:32:07.141Z,7.90
2019-04-03T04:34:33.395Z,7.90
2019-04-03T04:37:02.037Z,7.90
2019-04-03T04:39:29.302Z,7.90
2019-04-03T04:42:03.413Z,7.90
2019-04-03T04:44:31.264Z,7.90
2019-04-03T04:46:57.565Z,7.80
2019-04-03T04:49:23.810Z,7.80
2019-04-03T04:51:50.042Z,7.80
2019-04-03T04:54:16.575Z,7.80
2019-04-03T04:56:43.879Z,7.70
2019-04-03T04:59:11.773Z,7.70
2019-04-03T05:01:38.915Z,7.70
2019-04-03T05:04:05.315Z,7.70
2019-04-03T05:06:31.917Z,7.70
2019-04-03T05:08:58.301Z,7.70
2019-04-03T05:11:24.928Z,7.70
2019-04-03T05:13:51.273Z,7.60
2019-04-03T05:16:19.749Z,7.60
2019-04-03T05:18:46.000Z,7.60
2019-04-03T05:21:12.577Z,7.60
2019-04-03T05:23:39.241Z,7.60
2019-04-03T05:26:06.985Z,7.60
2019-04-03T05:28:34.227Z,7.70
2019-04-03T05:31:01.327Z,7.70
2019-04-03T05:33:27.709Z,7.70
2019-04-03T05:35:54.049Z,7.70
2019-04-03T05:38:22.523Z,7.70
2019-04-03T05:40:48.706Z,7.70
2019-04-03T05:43:14.947Z,7.80
2019-04-03T05:45:42.238Z,7.80
2019-04-03T05:48:12.675Z,7.80
2019-04-03T05:50:37.135Z,7.80
2019-04-03T05:53:05.678Z,7.80
2019-04-03T05:55:32.464Z,7.80
2019-04-03T05:57:58.850Z,7.80
2019-04-03T06:00:26.068Z,7.90
2019-04-03T06:02:53.138Z,7.90
2019-04-03T06:05:20.141Z,8.00
2019-04-03T06:07:48.484Z,8.00
2019-04-03T06:10:14.746Z,8.10
2019-04-03T06:12:44.726Z,8.10
2019-04-03T06:15:10.421Z,8.20
2019-04-03T06:17:36.884Z,8.30
2019-04-03T06:20:05.299Z,8.30
2019-04-03T06:22:31.965Z,8.40
2019-04-03T06:24:59.399Z,8.40
2019-04-03T06:27:27.568Z,8.50
2019-04-03T06:29:55.291Z,8.60
2019-04-03T06:32:24.352Z,8.60
2019-04-03T06:34:50.388Z,8.70
2019-04-03T06:37:16.921Z,8.80
2019-04-03T06:39:43.545Z,8.90
2019-04-03T06:42:11.404Z,9.10
2019-04-03T06:44:38.312Z,9.30
2019-04-03T06:47:04.691Z,9.60
2019-04-03T06:49:32.408Z,10.00
2019-04-03T06:51:59.801Z,10.30
2019-04-03T06:54:26.660Z,10.80
2019-04-03T06:56:53.163Z,11.20
2019-04-03T06:59:19.738Z,11.70
2019-04-03T07:01:46.018Z,12.10
2019-04-03T07:04:12.572Z,12.40
2019-04-03T07:06:39.968Z,12.50
2019-04-03T07:09:06.730Z,12.80
2019-04-03T07:11:33.076Z,13.00
2019-04-03T07:14:00.034Z,13.20
2019-04-03T07:16:28.586Z,13.50
2019-04-03T07:18:55.075Z,13.70
2019-04-03T07:21:23.918Z,14.00
2019-04-03T07:23:51.209Z,14.20
2019-04-03T07:26:17.589Z,14.60
2019-04-03T07:28:44.056Z,14.80
2019-04-03T07:31:10.666Z,15.20
2019-04-03T07:33:37.536Z,15.40
2019-04-03T07:36:03.990Z,15.70
2019-04-03T07:38:31.333Z,15.80
2019-04-03T07:40:57.682Z,16.00
2019-04-03T07:43:26.286Z,16.00
2019-04-03T07:45:52.063Z,16.00
2019-04-03T07:48:18.435Z,16.00
2019-04-03T07:50:46.146Z,15.90
2019-04-03T07:53:12.494Z,15.80
2019-04-03T07:55:38.788Z,15.70
2019-04-03T07:58:05.036Z,15.60
2019-04-03T08:00:32.762Z,15.50
2019-04-03T08:02:59.199Z,15.50
2019-04-03T08:05:25.740Z,15.50
2019-04-03T08:07:52.236Z,15.70
2019-04-03T08:10:18.572Z,16.10
2019-04-03T08:12:45.161Z,16.50
2019-04-03T08:15:13.486Z,16.70
2019-04-03T08:17:40.594Z,16.90
2019-04-03T08:20:08.156Z,17.00
2019-04-03T08:22:34.641Z,17.10
2019-04-03T08:25:01.128Z,17.50
2019-04-03T08:27:27.458Z,17.80
2019-04-03T08:29:54.174Z,18.30
2019-04-03T08:32:20.631Z,18.70
2019-04-03T08:34:46.952Z,18.90
2019-04-03T08:37:13.174Z,19.00
2019-04-03T08:39:39.732Z,19.20
2019-04-03T08:42:06.132Z,19.50
2019-04-03T08:44:33.844Z,19.80
2019-04-03T08:47:00.998Z,20.00
2019-04-03T08:49:27.315Z,20.00
2019-04-03T08:51:53.950Z,20.30
2019-04-03T08:54:20.607Z,20.60
2019-04-03T08:56:48.744Z,20.70
2019-04-03T08:59:15.621Z,20.80
2019-04-03T09:01:41.867Z,20.90
2019-04-03T09:04:09.494Z,21.10
2019-04-03T09:06:36.280Z,21.60
2019-04-03T09:09:06.377Z,21.70
2019-04-03T09:11:34.033Z,21.40
2019-04-03T09:14:00.789Z,21.30
2019-04-03T09:16:27.106Z,21.30
2019-04-03T09:18:53.547Z,21.30
2019-04-03T09:21:19.914Z,21.50
2019-04-03T09:23:46.673Z,21.40
2019-04-03T09:26:13.095Z,21.30
2019-04-03T09:28:41.409Z,21.30
2019-04-03T09:31:07.784Z,21.20
2019-04-03T09:33:34.378Z,21.00
2019-04-03T09:36:03.315Z,20.70
2019-04-03T09:38:29.105Z,20.20
2019-04-03T09:40:56.466Z,19.90
2019-04-03T09:43:23.214Z,19.40
2019-04-03T09:45:49.597Z,18.90
2019-04-03T09:48:16.456Z,18.70
2019-04-03T09:50:45.635Z,18.50
2019-04-03T09:53:11.776Z,18.30
2019-04-03T09:55:38.716Z,18.00
2019-04-03T09:58:05.034Z,17.70
2019-04-03T10:00:31.494Z,17.60
2019-04-03T10:02:57.915Z,17.60
2019-04-03T10:05:24.460Z,17.70
2019-04-03T10:07:50.698Z,17.60
2019-04-03T10:10:18.221Z,17.60
2019-04-03T10:12:47.559Z,17.40
2019-04-03T10:15:13.983Z,17.20
2019-04-03T10:17:40.702Z,17.00
2019-04-03T10:20:07.671Z,16.80
2019-04-03T10:22:34.425Z,16.60
2019-04-03T10:25:04.454Z,16.50
2019-04-03T10:27:30.245Z,16.30
2019-04-03T10:29:56.664Z,16.30
2019-04-03T10:32:22.992Z,16.20
2019-04-03T10:34:49.497Z,16.30
2019-04-03T10:37:16.121Z,16.50
2019-04-03T10:39:44.694Z,17.00
2019-04-03T10:42:11.356Z,17.50
2019-04-03T10:44:38.142Z,18.40
2019-04-03T10:47:04.838Z,19.30
2019-04-03T10:49:32.420Z,20.20
2019-04-03T10:51:59.478Z,20.90
2019-04-03T10:54:26.375Z,21.50
2019-04-03T10:56:52.714Z,21.90
2019-04-03T10:59:19.147Z,22.00
2019-04-03T11:01:46.782Z,22.00
2019-04-03T11:04:13.213Z,21.90
2019-04-03T11:06:42.860Z,21.90
2019-04-03T11:09:10.176Z,22.10
2019-04-03T11:11:37.502Z,22.70
2019-04-03T11:14:07.497Z,23.30
2019-04-03T11:16:33.306Z,24.00
2019-04-03T11:19:04.477Z,24.40
2019-04-03T11:21:28.621Z,24.40
2019-04-03T11:23:55.152Z,24.00
2019-04-03T11:26:24.310Z,23.80
2019-04-03T11:28:50.649Z,23.50
2019-04-03T11:31:25.369Z,23.40
2019-04-03T11:33:46.509Z,23.20
2019-04-03T11:36:13.312Z,23.10
2019-04-03T11:38:39.729Z,23.10
2019-04-03T11:41:12.765Z,23.50
2019-04-03T11:43:34.693Z,23.80
2019-04-03T11:46:01.494Z,23.10
2019-04-03T11:48:28.069Z,22.70
2019-04-03T11:50:56.917Z,22.30
2019-04-03T11:53:22.754Z,21.80
2019-04-03T11:55:49.039Z,21.50
2019-04-03T11:58:15.709Z,21.40
2019-04-03T12:00:46.912Z,21.20
2019-04-03T12:03:13.285Z,21.30
2019-04-03T12:05:39.850Z,21.80
2019-04-03T12:08:06.360Z,22.30
2019-04-03T12:10:34.668Z,22.50
2019-04-03T12:13:03.631Z,22.80
2019-04-03T12:15:29.155Z,23.00
2019-04-03T12:17:55.926Z,23.30
2019-04-03T12:20:22.429Z,23.40
2019-04-03T12:22:48.813Z,23.40
2019-04-03T12:25:15.233Z,23.20
2019-04-03T12:27:44.936Z,23.50
2019-04-03T12:30:11.400Z,24.20
2019-04-03T12:32:42.919Z,24.40
2019-04-03T12:35:07.287Z,24.50
2019-04-03T12:37:34.919Z,24.60
2019-04-03T12:40:01.513Z,24.90
2019-04-03T12:42:28.841Z,24.40
2019-04-03T12:44:55.363Z,24.00
2019-04-03T12:47:22.201Z,24.10
2019-04-03T12:49:48.532Z,24.30
2019-04-03T12:52:14.770Z,24.00
2019-04-03T12:54:41.408Z,24.00
2019-04-03T12:57:07.850Z,24.10
2019-04-03T12:59:34.448Z,24.50
2019-04-03T13:02:01.191Z,24.90
2019-04-03T13:04:30.665Z,25.40
2019-04-03T13:06:56.704Z,25.70
2019-04-03T13:09:24.367Z,25.90
2019-04-03T13:11:50.881Z,26.00
2019-04-03T13:14:24.136Z,26.00
2019-04-03T13:16:47.020Z,26.00
2019-04-03T13:19:15.366Z,26.10
2019-04-03T13:21:41.794Z,26.40
2019-04-03T13:24:10.897Z,26.60
2019-04-03T13:26:37.506Z,26.30
2019-04-03T13:29:06.991Z,26.30
2019-04-03T13:31:32.109Z,25.50
2019-04-03T13:33:58.962Z,24.60
2019-04-03T13:36:25.386Z,23.50
2019-04-03T13:38:54.359Z,22.80
2019-04-03T13:41:21.870Z,22.60
2019-04-03T13:43:48.504Z,22.80
2019-04-03T13:46:14.838Z,22.80
2019-04-03T13:48:42.839Z,22.60
2019-04-03T13:51:12.213Z,22.50
2019-04-03T13:53:37.938Z,22.60
2019-04-03T13:56:06.745Z,22.60
2019-04-03T13:58:35.078Z,22.30
2019-04-03T14:01:02.984Z,21.90
2019-04-03T14:03:31.038Z,21.60
2019-04-03T14:05:58.150Z,21.20
2019-04-03T14:08:24.566Z,20.60
2019-04-03T14:10:50.998Z,20.20
2019-04-03T14:13:17.247Z,19.90
2019-04-03T14:15:43.651Z,19.70
2019-04-03T14:18:09.910Z,19.50
2019-04-03T14:20:36.576Z,19.60
2019-04-03T14:23:04.831Z,19.20
2019-04-03T14:25:36.418Z,19.00
2019-04-03T14:28:01.774Z,18.70
2019-04-03T14:30:27.948Z,18.50
2019-04-03T14:32:55.158Z,18.40
2019-04-03T14:35:45.901Z,18.40
2019-04-03T14:37:50.175Z,18.30
2019-04-03T14:40:16.750Z,18.30
2019-04-03T14:42:43.163Z,18.10
2019-04-03T14:45:13.393Z,18.00
2019-04-03T14:47:38.609Z,17.90
2019-04-03T14:50:06.466Z,17.90
2019-04-03T14:52:33.956Z,18.00
2019-04-03T14:55:15.382Z,18.00
2019-04-03T14:57:29.210Z,18.00
2019-04-03T14:59:55.600Z,18.00
2019-04-03T15:02:23.810Z,18.30
2019-04-03T15:04:50.479Z,18.40
2019-04-03T15:07:17.873Z,18.40
2019-04-03T15:09:45.249Z,18.40
2019-04-03T15:12:12.540Z,18.50
2019-04-03T15:14:39.592Z,18.50
2019-04-03T15:17:05.969Z,18.40
2019-04-03T15:19:32.346Z,18.20
2019-04-03T15:22:01.720Z,18.10
2019-04-03T15:24:27.183Z,18.00
2019-04-03T15:26:54.373Z,17.90
2019-04-03T15:29:21.489Z,17.80
2019-04-03T15:31:48.122Z,17.70
2019-04-03T15:34:14.946Z,17.60
2019-04-03T15:36:41.457Z,17.50
2019-04-03T15:39:09.827Z,17.40
2019-04-03T15:41:36.238Z,17.30
2019-04-03T15:44:02.817Z,17.10
2019-04-03T15:46:30.087Z,17.10
2019-04-03T15:48:57.667Z,17.00
2019-04-03T15:51:25.356Z,17.00
2019-04-03T15:53:52.782Z,17.10
2019-04-03T15:56:19.204Z,17.00
2019-04-03T15:58:45.545Z,17.10
2019-04-03T16:01:11.862Z,17.00
2019-04-03T16:03:38.192Z,17.00
2019-04-03T16:06:05.165Z,17.00
2019-04-03T16:08:31.724Z,17.00
2019-04-03T16:10:58.942Z,16.90
2019-04-03T16:13:25.268Z,16.90
2019-04-03T16:15:55.200Z,16.90
2019-04-03T16:18:21.164Z,16.90
2019-04-03T16:20:49.007Z,16.80
2019-04-03T16:23:15.992Z,16.80
2019-04-03T16:25:42.586Z,16.80
2019-04-03T16:28:08.848Z,16.70
2019-04-03T16:30:35.541Z,16.70
2019-04-03T16:33:04.283Z,16.50
2019-04-03T16:35:30.630Z,16.20
2019-04-03T16:37:57.849Z,15.70
2019-04-03T16:40:25.144Z,15.40
2019-04-03T16:42:53.028Z,15.00
2019-04-03T16:45:19.858Z,14.50
2019-04-03T16:47:46.130Z,13.90
2019-04-03T16:50:13.095Z,13.60
2019-04-03T16:52:39.975Z,13.10
2019-04-03T16:55:07.104Z,12.80
2019-04-03T16:57:33.439Z,12.20
2019-04-03T17:00:00.275Z,11.50
2019-04-03T17:02:29.098Z,10.70
2019-04-03T17:04:55.190Z,9.90
2019-04-03T17:07:22.413Z,9.30
2019-04-03T17:09:48.962Z,9.00
2019-04-03T17:12:17.114Z,8.70
2019-04-03T17:14:43.777Z,8.40
2019-04-03T17:17:13.607Z,8.00
2019-04-03T17:19:38.591Z,7.80
2019-04-03T17:22:07.090Z,7.50
2019-04-03T17:24:41.427Z,7.30
2019-04-03T17:27:03.319Z,7.10
2019-04-03T17:29:29.715Z,7.00
2019-04-03T17:31:58.182Z,6.90
2019-04-03T17:34:26.141Z,6.80
2019-04-03T17:36:54.108Z,6.70
2019-04-03T17:39:22.187Z,6.70
2019-04-03T17:41:48.506Z,6.60
2019-04-03T17:44:14.761Z,6.50
2019-04-03T17:46:41.866Z,6.40
2019-04-03T17:49:08.619Z,6.20
2019-04-03T17:51:34.882Z,6.10
2019-04-03T17:54:01.275Z,6.00
2019-04-03T17:56:27.874Z,5.80
2019-04-03T17:58:54.113Z,5.70
2019-04-03T18:01:22.278Z,5.60
2019-04-03T18:03:49.609Z,5.60
2019-04-03T18:06:20.829Z,5.50
2019-04-03T18:08:47.409Z,5.40
2019-04-03T18:11:13.869Z,5.40
2019-04-03T18:13:40.199Z,5.30
2019-04-03T18:16:06.727Z,5.30
2019-04-03T18:18:33.424Z,5.20
2019-04-03T18:21:01.435Z,5.20
2019-04-03T18:23:27.671Z,5.10
2019-04-03T18:25:54.330Z,5.10
2019-04-03T18:28:21.074Z,5.00
2019-04-03T18:30:47.533Z,4.90
2019-04-03T18:33:16.617Z,4.90
2019-04-03T18:35:42.261Z,4.80
2019-04-03T18:38:08.837Z,4.80
2019-04-03T18:40:35.486Z,4.80
2019-04-03T18:43:01.720Z,4.80
2019-04-03T18:45:27.982Z,4.80
2019-04-03T18:47:55.304Z,4.80
2019-04-03T18:50:21.651Z,4.80
2019-04-03T18:52:48.079Z,4.80
2019-04-03T18:55:14.772Z,4.70
2019-04-03T18:57:41.531Z,4.70
2019-04-03T19:00:08.869Z,4.70
2019-04-03T19:02:35.339Z,4.70
2019-04-03T19:05:02.809Z,4.70
2019-04-03T19:07:29.136Z,4.70
2019-04-03T19:10:06.485Z,4.70
2019-04-03T19:12:35.003Z,4.60
2019-04-03T19:14:52.637Z,4.60
2019-04-03T19:17:20.145Z,4.60
2019-04-03T19:19:46.562Z,4.60
2019-04-03T19:22:12.817Z,4.50
2019-04-03T19:24:39.430Z,4.50
2019-04-03T19:27:06.307Z,4.40
2019-04-03T19:29:33.889Z,4.40
2019-04-03T19:32:01.061Z,4.30
2019-04-03T19:34:27.400Z,4.20
2019-04-03T19:36:53.749Z,4.20
2019-04-03T19:39:20.086Z,4.20
2019-04-03T19:41:46.322Z,4.20
2019-04-03T19:44:12.934Z,4.10
2019-04-03T19:46:39.170Z,4.10
2019-04-03T19:49:05.517Z,4.10
2019-04-03T19:51:31.942Z,4.10
2019-04-03T19:53:59.515Z,4.10
2019-04-03T19:56:26.986Z,4.10
2019-04-03T19:58:53.504Z,4.10
2019-04-03T20:01:19.815Z,4.10
2019-04-03T20:03:46.183Z,4.10
2019-04-03T20:06:12.748Z,4.10
2019-04-03T20:08:39.201Z,4.20
2019-04-03T20:11:05.815Z,4.20
2019-04-03T20:13:32.914Z,4.20
2019-04-03T20:15:59.342Z,4.20
2019-04-03T20:18:25.898Z,4.10
2019-04-03T20:20:52.936Z,4.10
2019-04-03T20:23:19.448Z,4.10
2019-04-03T20:25:46.534Z,4.10
2019-04-03T20:28:13.180Z,4.10
2019-04-03T20:30:39.569Z,4.10
2019-04-03T20:33:06.951Z,4.10
2019-04-03T20:35:34.281Z,4.00
2019-04-03T20:38:00.545Z,4.10
2019-04-03T20:40:26.977Z,4.10
2019-04-03T20:42:53.503Z,4.10
2019-04-03T20:45:20.146Z,4.00
2019-04-03T20:47:46.379Z,4.00
2019-04-03T20:50:15.973Z,4.00
2019-04-03T20:52:41.652Z,4.00
2019-04-03T20:55:08.364Z,4.00
2019-04-03T20:57:34.754Z,4.00
2019-04-03T21:00:03.392Z,4.00
2019-04-03T21:02:31.702Z,3.90
2019-04-03T21:04:58.336Z,3.90
2019-04-03T21:07:24.656Z,3.90
2019-04-03T21:09:50.982Z,4.00
2019-04-03T21:12:17.238Z,4.00
2019-04-03T21:14:43.490Z,4.00
2019-04-03T21:17:09.834Z,4.00
2019-04-03T21:19:36.080Z,4.10
2019-04-03T21:22:02.343Z,4.10
2019-04-03T21:24:28.590Z,4.10
2019-04-03T21:26:54.886Z,4.00
2019-04-03T21:29:21.126Z,4.00
2019-04-03T21:31:47.382Z,4.00
2019-04-03T21:34:13.644Z,4.00
2019-04-03T21:36:40.282Z,4.00
2019-04-03T21:39:06.741Z,4.10
2019-04-03T21:41:34.081Z,4.10
2019-04-03T21:44:00.686Z,4.10
2019-04-03T21:46:26.936Z,4.10
2019-04-03T21:48:53.436Z,4.10
2019-04-03T21:51:20.853Z,4.10
2019-04-03T21:53:47.893Z,4.10
2019-04-03T21:56:14.432Z,4.10
2019-04-03T21:58:40.761Z,4.10
2019-04-03T22:01:17.306Z,4.10
2019-04-03T22:03:44.093Z,4.10
2019-04-03T22:06:10.479Z,4.10
2019-04-03T22:08:36.869Z,4.10
2019-04-03T22:11:04.686Z,4.10
2019-04-03T22:13:31.398Z,4.10
2019-04-03T22:15:58.132Z,4.00
2019-04-03T22:18:24.376Z,4.10
2019-04-03T22:20:50.996Z,4.10
2019-04-03T22:23:17.606Z,4.10
2019-04-03T22:25:43.939Z,4.10
2019-04-03T22:28:10.157Z,4.20
2019-04-03T22:30:37.401Z,4.20
2019-04-03T22:33:03.900Z,4.20
2019-04-03T22:35:32.271Z,4.20
2019-04-03T22:37:58.443Z,4.20
2019-04-03T22:40:24.723Z,4.20
2019-04-03T22:42:51.065Z,4.30
2019-04-03T22:45:18.110Z,4.30
2019-04-03T22:47:47.709Z,4.30
2019-04-03T22:50:14.242Z,4.30
2019-04-03T22:52:40.616Z,4.30
2019-04-03T22:55:07.209Z,4.30
2019-04-03T22:57:34.345Z,4.30
2019-04-03T23:00:01.138Z,4.30
2019-04-03T23:02:29.879Z,4.30
2019-04-03T23:04:57.511Z,4.20
2019-04-03T23:07:23.785Z,4.30
2019-04-03T23:09:50.140Z,4.30
2019-04-03T23:12:16.522Z,4.30
2019-04-03T23:14:42.746Z,4.20
2019-04-03T23:17:09.379Z,4.20
2019-04-03T23:19:35.715Z,4.20
2019-04-03T23:22:01.992Z,4.20
2019-04-03T23:24:28.896Z,4.20
2019-04-03T23:26:56.027Z,4.20
2019-04-03T23:29:22.365Z,4.20
2019-04-03T23:31:49.354Z,4.20
2019-04-03T23:34:18.754Z,4.20
2019-04-03T23:36:44.706Z,4.20
2019-04-03T23:39:10.981Z,4.20
2019-04-03T23:41:37.206Z,4.20
2019-04-03T23:44:03.483Z,4.20
2019-04-03T23:46:29.714Z,4.20
2019-04-03T23:48:55.989Z,4.20
2019-04-03T23:51:23.499Z,4.20
2019-04-03T23:53:50.067Z,4.10
2019-04-03T23:56:16.549Z,4.20
2019-04-03T23:58:42.918Z,4.10
